Artemis — PFCB — position and weather

sailwx.info

Track history (hours):
 
Tides and Currents Weather Stations Pressure Air Temp Water Temp Dewpoint Dewpoint Depression Visibility Wind Speed Wind Dir Waves Ship Positions

Artemis (Netherlands)

Ship's website: http://www.tallship-company.com/artemis/gb_artemis.htm

Last reported at 2017-Oct-26 14:13 UTC. Time now 2017-Nov-20 19:01 UTC.
Position N 53°10' E 005°25'.
Warning: this ship's position is 25 days out of date.

Length 59 m; draft 3.4 m.

Type: Sailing vessel. MMSI: 244875000.

Date/timePositionNaut miles runAvg speedWind from/ knotsBaromVisibWave heightAir tempDewpointWater temp
2017-Oct-26 14:13N 53°10' E 005°25'0 0.0
2017-Oct-26 13:58N 53°10' E 005°25'0 0.0
2017-Oct-26 13:28N 53°10' E 005°25'0 0.0
2017-Oct-26 12:58N 53°10' E 005°25'0 0.0
2017-Oct-26 12:28N 53°10' E 005°25'0 0.0
2017-Oct-26 11:58N 53°10' E 005°25'0 0.0
2017-Oct-26 11:28N 53°10' E 005°25'0 0.0
2017-Oct-26 10:58N 53°10' E 005°25'0 0.0
2017-Oct-26 10:28N 53°10' E 005°25'0 0.0
2017-Oct-26 09:58N 53°10' E 005°25'0 0.0
2017-Oct-26 09:28N 53°10' E 005°25'0 0.0
2017-Oct-26 08:58N 53°10' E 005°25'0 0.0
2017-Oct-26 08:28N 53°10' E 005°25'0 0.0
2017-Oct-26 07:58N 53°10' E 005°25'0 0.0
2017-Oct-26 07:28N 53°10' E 005°25'0 0.0
2017-Oct-26 06:58N 53°10' E 005°25'0 0.0
2017-Oct-26 06:28N 53°10' E 005°25'0 0.0
2017-Oct-26 05:58N 53°10' E 005°25'0 0.0
2017-Oct-26 05:28N 53°10' E 005°25'0 0.0
2017-Oct-26 04:58N 53°10' E 005°25'0 0.0
2017-Oct-26 04:28N 53°10' E 005°25'0 0.0
2017-Oct-26 03:58N 53°10' E 005°25'0 0.0
2017-Oct-26 03:28N 53°10' E 005°25'0 0.0
2017-Oct-26 02:58N 53°10' E 005°25'0 0.0
2017-Oct-26 02:28N 53°10' E 005°25'0 0.0
2017-Oct-26 01:58N 53°10' E 005°25'0 0.0
2017-Oct-26 01:28N 53°10' E 005°25'0 0.0
2017-Oct-26 00:58N 53°10' E 005°25'0 0.0
2017-Oct-26 00:28N 53°10' E 005°25'0 0.0
2017-Oct-25 23:58N 53°10' E 005°25'0 0.0
2017-Oct-25 23:28N 53°10' E 005°25'0 0.0
2017-Oct-25 22:58N 53°10' E 005°25'0 0.0
2017-Oct-25 22:28N 53°10' E 005°25'0 0.0
2017-Oct-25 21:58N 53°10' E 005°25'0 0.0
2017-Oct-25 21:28N 53°10' E 005°25'0 0.0
2017-Oct-25 20:58N 53°10' E 005°25'0 0.0
2017-Oct-25 20:28N 53°10' E 005°25'0 0.0
2017-Oct-25 19:58N 53°10' E 005°25'0 0.0
2017-Oct-25 19:28N 53°10' E 005°25'0 0.0
2017-Oct-25 18:58N 53°10' E 005°25'0 0.0
2017-Oct-25 18:28N 53°10' E 005°25'0 0.0
2017-Oct-25 17:58N 53°10' E 005°25'0 0.0
2017-Oct-25 17:28N 53°10' E 005°25'0 0.0
2017-Oct-25 16:58N 53°10' E 005°25'0 0.0
2017-Oct-25 16:28N 53°10' E 005°25'0 0.0
2017-Oct-25 15:58N 53°10' E 005°25'0 0.0
2017-Oct-25 15:28N 53°10' E 005°25'0 0.0
2017-Oct-25 14:58N 53°10' E 005°25'0 0.0
2017-Oct-25 14:28N 53°10' E 005°25'0 0.0
2017-Oct-25 13:58N 53°10' E 005°25'0 0.0
2017-Oct-25 13:28N 53°10' E 005°25'0 0.0
2017-Oct-25 12:58N 53°10' E 005°25'0 0.0
2017-Oct-25 12:28N 53°10' E 005°25'0 0.0
2017-Oct-25 11:58N 53°10' E 005°25'0 0.0
2017-Oct-25 11:30N 53°10' E 005°25'1 2.2
2017-Oct-25 11:00N 53°10' E 005°23'3 6.1
2017-Oct-25 10:30N 53°07' E 005°22'3 6.4
2017-Oct-25 10:00N 53°05' E 005°18'4 7.8
2017-Oct-25 09:30N 53°03' E 005°12'4 7.7
2017-Oct-25 09:00N 53°02' E 005°06'3 6.7
2017-Oct-25 08:30N 53°04' E 005°01'4 7.7
2017-Oct-25 08:00N 53°03' E 004°54'2 4.3
2017-Oct-25 07:30N 53°02' E 004°51'0 0.0
2017-Oct-25 06:56N 53°02' E 004°51'0 0.0
2017-Oct-25 06:29N 53°02' E 004°51'0 0.0
2017-Oct-25 05:59N 53°02' E 004°51'0 0.0
2017-Oct-25 05:29N 53°02' E 004°51'0 0.0
2017-Oct-25 04:59N 53°02' E 004°51'0 0.0
2017-Oct-25 04:29N 53°02' E 004°51'0 0.0
2017-Oct-25 03:56N 53°02' E 004°51'0 0.0
2017-Oct-25 03:29N 53°02' E 004°51'0 0.0
2017-Oct-25 02:59N 53°02' E 004°51'0 0.0
2017-Oct-25 02:29N 53°02' E 004°51'0 0.0
2017-Oct-25 01:56N 53°02' E 004°51'0 0.0
2017-Oct-25 01:29N 53°02' E 004°51'0 0.0
2017-Oct-25 00:59N 53°02' E 004°51'0 0.0
2017-Oct-25 00:29N 53°02' E 004°51'0 0.0
2017-Oct-24 23:59N 53°02' E 004°51'0 0.0
2017-Oct-24 23:29N 53°02' E 004°51'0 0.0
2017-Oct-24 22:59N 53°02' E 004°51'0 0.0
2017-Oct-24 22:26N 53°02' E 004°51'0 0.0
2017-Oct-24 21:59N 53°02' E 004°51'0 0.0
2017-Oct-24 21:29N 53°02' E 004°51'0 0.0
2017-Oct-24 20:59N 53°02' E 004°51'0 0.0
2017-Oct-24 20:29N 53°02' E 004°51'0 0.0
2017-Oct-24 19:59N 53°02' E 004°51'0 0.0
2017-Oct-24 19:29N 53°02' E 004°51'0 0.0
2017-Oct-24 18:59N 53°02' E 004°51'0 0.0
2017-Oct-24 18:29N 53°02' E 004°51'0 0.0
2017-Oct-24 17:59N 53°02' E 004°51'0 0.0
2017-Oct-24 17:29N 53°02' E 004°51'0 0.0
2017-Oct-24 16:59N 53°02' E 004°51'0 0.0
2017-Oct-24 16:29N 53°02' E 004°51'0 0.0
2017-Oct-24 15:59N 53°02' E 004°51'0 0.0
2017-Oct-24 15:29N 53°02' E 004°51'0 0.0
2017-Oct-24 14:59N 53°02' E 004°51'0 0.0
2017-Oct-24 14:29N 53°02' E 004°51'0 0.0
2017-Oct-24 14:00N 53°02' E 004°51'1 2.9
2017-Oct-24 13:30N 53°01' E 004°50'3 5.3
2017-Oct-24 13:00N 52°59' E 004°47'3 5.1
2017-Oct-24 12:30N 52°58' E 004°44'3 5.8
2017-Oct-24 12:00N 52°56' E 004°40'3 6.6
2017-Oct-24 11:30N 52°53' E 004°38'4 7.2
2017-Oct-24 11:00N 52°49' E 004°37'3 6.8
2017-Oct-24 10:30N 52°46' E 004°36'3 7.0
2017-Oct-24 10:00N 52°43' E 004°35'4 7.3
2017-Oct-24 09:30N 52°39' E 004°34'3 7.0
2017-Oct-24 09:00N 52°35' E 004°33'4 7.3
2017-Oct-24 08:30N 52°32' E 004°32'4 7.3
2017-Oct-24 08:01N 52°28' E 004°32'2 4.4
2017-Oct-24 07:30N 52°28' E 004°36'1 2.9
2017-Oct-24 07:00N 52°28' E 004°38'3 6.6
2017-Oct-24 06:31N 52°26' E 004°43'3 6.8
2017-Oct-24 06:01N 52°25' E 004°48'3 6.6
2017-Oct-24 05:30N 52°24' E 004°53'0 0.6
2017-Oct-24 05:00N 52°24' E 004°53'0 0.0
2017-Oct-24 04:30N 52°24' E 004°53'0 0.0
2017-Oct-24 04:00N 52°24' E 004°53'0 0.0
2017-Oct-24 03:30N 52°24' E 004°53'0 0.0
2017-Oct-24 03:00N 52°24' E 004°53'0 0.0
2017-Oct-24 02:29N 52°24' E 004°53'0 0.0
2017-Oct-24 02:00N 52°24' E 004°53'0 0.0
2017-Oct-24 01:29N 52°24' E 004°53'0 0.0
2017-Oct-24 01:00N 52°24' E 004°53'0 0.0
2017-Oct-24 00:29N 52°24' E 004°53'0 0.0
2017-Oct-24 00:00N 52°24' E 004°53'0 0.0
2017-Oct-23 23:30N 52°24' E 004°53'0 0.0
2017-Oct-23 23:00N 52°24' E 004°53'0 0.0
2017-Oct-23 22:30N 52°24' E 004°53'0 0.0
2017-Oct-23 22:00N 52°24' E 004°53'0 0.0
2017-Oct-23 21:30N 52°24' E 004°53'0 0.0
2017-Oct-23 21:00N 52°24' E 004°53'0 0.0
2017-Oct-23 20:30N 52°24' E 004°53'0 0.0
2017-Oct-23 19:59N 52°24' E 004°53'0 0.0
2017-Oct-23 19:30N 52°24' E 004°53'0 0.0
2017-Oct-23 19:00N 52°24' E 004°53'0 0.0
2017-Oct-23 18:29N 52°24' E 004°53'0 0.0
2017-Oct-23 17:59N 52°24' E 004°53'0 0.0
2017-Oct-23 17:30N 52°24' E 004°53'0 0.0
2017-Oct-23 17:00N 52°24' E 004°53'0 0.0
2017-Oct-23 16:30N 52°24' E 004°53'0 0.0
2017-Oct-23 16:00N 52°24' E 004°53'0 0.0
2017-Oct-23 15:30N 52°24' E 004°53'0 0.0
2017-Oct-23 15:00N 52°24' E 004°53'0 0.0
2017-Oct-23 14:30N 52°24' E 004°53'0 0.0
2017-Oct-23 13:59N 52°24' E 004°53'0 0.0
2017-Oct-23 13:30N 52°24' E 004°53'0 0.0
2017-Oct-23 13:00N 52°24' E 004°53'0 0.0
2017-Oct-23 12:29N 52°24' E 004°53'0 0.0
2017-Oct-23 12:00N 52°24' E 004°53'0 0.0
2017-Oct-23 11:29N 52°24' E 004°53'0 0.0
2017-Oct-23 11:00N 52°24' E 004°53'0 0.0
2017-Oct-23 10:29N 52°24' E 004°53'0 0.0
2017-Oct-23 09:59N 52°24' E 004°53'0 0.0
2017-Oct-23 09:30N 52°24' E 004°53'0 0.0
2017-Oct-23 08:59N 52°24' E 004°53'0 0.0
2017-Oct-23 08:29N 52°24' E 004°53'0 0.0
2017-Oct-23 07:59N 52°24' E 004°53'0 0.0
2017-Oct-23 07:30N 52°24' E 004°53'0 0.0
2017-Oct-23 06:59N 52°24' E 004°53'0 0.0
2017-Oct-23 06:30N 52°24' E 004°53'0 0.0
2017-Oct-23 05:59N 52°24' E 004°53'0 0.0
2017-Oct-23 05:30N 52°24' E 004°53'0 0.0
2017-Oct-23 04:59N 52°24' E 004°53'0 0.0
2017-Oct-23 04:29N 52°24' E 004°53'0 0.0
2017-Oct-23 04:00N 52°24' E 004°53'0 0.0
2017-Oct-23 03:30N 52°24' E 004°53'0 0.0
2017-Oct-23 02:30N 52°24' E 004°53'0 0.0
2017-Oct-23 01:59N 52°24' E 004°53'0 0.0
2017-Oct-23 01:29N 52°24' E 004°53'0 0.0
2017-Oct-23 00:59N 52°24' E 004°53'0 0.0
2017-Oct-23 00:29N 52°24' E 004°53'0 0.0
2017-Oct-23 00:00N 52°24' E 004°53'0 0.0
2017-Oct-22 23:30N 52°24' E 004°53'0 0.0
2017-Oct-22 23:00N 52°24' E 004°53'0 0.0
2017-Oct-22 22:30N 52°24' E 004°53'0 0.0
2017-Oct-22 21:59N 52°24' E 004°53'0 0.0
2017-Oct-22 21:30N 52°24' E 004°53'0 0.0
2017-Oct-22 21:00N 52°24' E 004°53'0 0.0
2017-Oct-22 20:30N 52°24' E 004°53'0 0.0
2017-Oct-22 20:00N 52°24' E 004°53'0 0.0
2017-Oct-22 19:30N 52°24' E 004°53'0 0.0
2017-Oct-22 19:00N 52°24' E 004°53'0 0.0
2017-Oct-22 18:30N 52°24' E 004°53'0 0.0
2017-Oct-22 18:00N 52°24' E 004°53'0 0.0
2017-Oct-22 17:29N 52°24' E 004°53'0 0.0
2017-Oct-22 17:00N 52°24' E 004°53'0 0.0
2017-Oct-22 16:30N 52°24' E 004°53'0 0.0
2017-Oct-22 15:59N 52°24' E 004°53'0 0.0
2017-Oct-22 15:30N 52°24' E 004°53'0 0.0
2017-Oct-22 14:59N 52°24' E 004°53'0 0.0
2017-Oct-22 14:30N 52°24' E 004°53'0 0.0
2017-Oct-22 13:59N 52°24' E 004°53'0 0.0
2017-Oct-22 13:30N 52°24' E 004°53'0 0.0
2017-Oct-22 12:59N 52°24' E 004°53'0 0.0
2017-Oct-22 12:29N 52°24' E 004°53'0 0.0
2017-Oct-22 11:59N 52°24' E 004°53'0 0.0
2017-Oct-22 11:30N 52°24' E 004°53'0 0.0
2017-Oct-22 10:59N 52°24' E 004°53'0 0.0
2017-Oct-22 10:30N 52°24' E 004°53'0 0.0
2017-Oct-22 10:00N 52°24' E 004°53'0 0.0
2017-Oct-22 09:30N 52°24' E 004°53'0 0.0
2017-Oct-22 09:00N 52°24' E 004°53'0 0.0
2017-Oct-22 08:29N 52°24' E 004°53'0 0.0
2017-Oct-22 07:59N 52°24' E 004°53'0 0.0
2017-Oct-22 07:29N 52°24' E 004°53'0 0.0
2017-Oct-22 06:59N 52°24' E 004°53'0 0.0
2017-Oct-22 06:30N 52°24' E 004°53'0 0.0
2017-Oct-22 06:00N 52°24' E 004°53'0 0.0
2017-Oct-22 05:30N 52°24' E 004°53'0 0.0
2017-Oct-22 05:00N 52°24' E 004°53'0 0.0
2017-Oct-22 04:29N 52°24' E 004°53'0 0.0
2017-Oct-22 03:59N 52°24' E 004°53'0 0.0
2017-Oct-22 03:29N 52°24' E 004°53'0 0.0
2017-Oct-22 02:59N 52°24' E 004°53'0 0.0
2017-Oct-22 02:30N 52°24' E 004°53'0 0.0
2017-Oct-22 01:59N 52°24' E 004°53'0 0.0
2017-Oct-22 01:29N 52°24' E 004°53'0 0.0
2017-Oct-22 01:00N 52°24' E 004°53'0 0.0
2017-Oct-22 00:29N 52°24' E 004°53'0 0.0
2017-Oct-22 00:00N 52°24' E 004°53'0 0.0
2017-Oct-21 23:30N 52°24' E 004°53'0 0.0
2017-Oct-21 22:59N 52°24' E 004°53'0 0.0
2017-Oct-21 22:30N 52°24' E 004°53'0 0.0
2017-Oct-21 22:00N 52°24' E 004°53'0 0.0
2017-Oct-21 21:29N 52°24' E 004°53'0 0.0
2017-Oct-21 21:00N 52°24' E 004°53'0 0.0
2017-Oct-21 20:29N 52°24' E 004°53'0 0.0
2017-Oct-21 19:59N 52°24' E 004°53'0 0.0
2017-Oct-21 19:29N 52°24' E 004°53'0 0.0
2017-Oct-21 18:59N 52°24' E 004°53'0 0.0
2017-Oct-21 18:29N 52°24' E 004°53'0 0.0
2017-Oct-21 17:59N 52°24' E 004°53'0 0.0
2017-Oct-21 17:30N 52°24' E 004°53'0 0.0
2017-Oct-21 17:00N 52°24' E 004°53'0 0.0
2017-Oct-21 16:29N 52°24' E 004°53'0 0.0
2017-Oct-21 16:00N 52°24' E 004°53'0 0.0
2017-Oct-21 15:30N 52°24' E 004°53'0 0.0
2017-Oct-21 15:00N 52°24' E 004°53'0 0.0
2017-Oct-21 14:00N 52°24' E 004°53'0 0.0
2017-Oct-21 13:29N 52°24' E 004°53'0 0.0
2017-Oct-21 12:59N 52°24' E 004°53'0 0.0
2017-Oct-21 12:29N 52°24' E 004°53'0 0.0
2017-Oct-21 11:59N 52°24' E 004°53'0 0.0
2017-Oct-21 11:30N 52°24' E 004°53'0 0.0
2017-Oct-21 10:59N 52°24' E 004°53'0 0.0
2017-Oct-21 10:29N 52°24' E 004°53'0 0.0
2017-Oct-21 10:00N 52°24' E 004°53'0 0.0
2017-Oct-21 09:30N 52°24' E 004°53'0 0.0
2017-Oct-21 09:00N 52°24' E 004°53'0 0.0
2017-Oct-21 08:29N 52°24' E 004°53'0 0.0
2017-Oct-21 07:59N 52°24' E 004°53'0 0.0
2017-Oct-21 07:30N 52°24' E 004°53'0 0.0
2017-Oct-21 06:59N 52°24' E 004°53'0 0.0
2017-Oct-21 06:30N 52°24' E 004°53'0 0.0
2017-Oct-21 05:59N 52°24' E 004°53'0 0.0
2017-Oct-21 05:29N 52°24' E 004°53'0 0.0
2017-Oct-21 05:00N 52°24' E 004°53'0 0.0
2017-Oct-21 04:29N 52°24' E 004°53'0 0.0
2017-Oct-21 03:59N 52°24' E 004°53'0 0.0
2017-Oct-21 03:30N 52°24' E 004°53'0 0.0
2017-Oct-21 03:00N 52°24' E 004°53'0 0.0
2017-Oct-21 02:29N 52°24' E 004°53'0 0.0
2017-Oct-21 01:59N 52°24' E 004°53'0 0.0
2017-Oct-21 01:30N 52°24' E 004°53'0 0.0
2017-Oct-21 01:00N 52°24' E 004°53'0 0.0
2017-Oct-21 00:30N 52°24' E 004°53'0 0.0
2017-Oct-20 23:59N 52°24' E 004°53'0 0.0
2017-Oct-20 23:29N 52°24' E 004°53'0 0.0
2017-Oct-20 23:00N 52°24' E 004°53'0 0.0
2017-Oct-20 22:30N 52°24' E 004°53'0 0.0
2017-Oct-20 22:00N 52°24' E 004°53'0 0.0
2017-Oct-20 21:30N 52°24' E 004°53'0 0.0
2017-Oct-20 20:59N 52°24' E 004°53'0 0.0
2017-Oct-20 20:29N 52°24' E 004°53'0 0.0
2017-Oct-20 20:00N 52°24' E 004°53'0 0.0
2017-Oct-20 19:30N 52°24' E 004°53'0 0.0
2017-Oct-20 18:59N 52°24' E 004°53'0 0.0
2017-Oct-20 18:29N 52°24' E 004°53'0 0.0
2017-Oct-20 17:59N 52°24' E 004°53'0 0.0
2017-Oct-20 17:29N 52°24' E 004°53'0 0.0
2017-Oct-20 16:59N 52°24' E 004°53'0 0.0
2017-Oct-20 16:29N 52°24' E 004°53'0 0.0
2017-Oct-20 16:00N 52°24' E 004°53'0 0.0
2017-Oct-20 15:29N 52°24' E 004°53'0 0.0
2017-Oct-20 14:59N 52°24' E 004°53'0 0.0
2017-Oct-20 14:30N 52°24' E 004°53'0 0.0
2017-Oct-20 13:30N 52°24' E 004°53'0 0.0
2017-Oct-20 12:59N 52°24' E 004°53'0 0.0
2017-Oct-20 12:29N 52°24' E 004°53'0 0.0
2017-Oct-20 11:59N 52°24' E 004°53'0 0.0
2017-Oct-20 11:30N 52°24' E 004°53'0 0.0
2017-Oct-20 10:59N 52°24' E 004°53'0 0.0
2017-Oct-20 10:29N 52°24' E 004°53'0 0.0
2017-Oct-20 09:59N 52°24' E 004°53'0 0.0
2017-Oct-20 09:29N 52°24' E 004°53'0 0.0
2017-Oct-20 09:00N 52°24' E 004°53'0 0.0
2017-Oct-20 08:29N 52°24' E 004°53'0 0.0
2017-Oct-20 08:00N 52°24' E 004°53'0 0.0
2017-Oct-20 07:29N 52°24' E 004°53'0 0.0
2017-Oct-20 07:00N 52°24' E 004°53'0 0.0
2017-Oct-20 06:30N 52°24' E 004°53'0 0.0
2017-Oct-20 05:59N 52°24' E 004°53'0 0.0
2017-Oct-20 05:29N 52°24' E 004°53'0 0.0
2017-Oct-20 04:59N 52°24' E 004°53'0 0.0
2017-Oct-20 04:30N 52°24' E 004°53'0 0.0
2017-Oct-20 04:00N 52°24' E 004°53'0 0.0
2017-Oct-20 03:30N 52°24' E 004°53'0 0.0
2017-Oct-20 02:59N 52°24' E 004°53'0 0.0
2017-Oct-20 02:29N 52°24' E 004°53'0 0.0
2017-Oct-20 01:59N 52°24' E 004°53'0 0.0
2017-Oct-20 01:30N 52°24' E 004°53'0 0.0
2017-Oct-20 01:00N 52°24' E 004°53'0 0.0
2017-Oct-20 00:30N 52°24' E 004°53'0 0.0
2017-Oct-19 23:59N 52°24' E 004°53'0 0.0
2017-Oct-19 23:29N 52°24' E 004°53'0 0.0
2017-Oct-19 22:59N 52°24' E 004°53'0 0.0
2017-Oct-19 22:29N 52°24' E 004°53'0 0.0
2017-Oct-19 21:59N 52°24' E 004°53'0 0.0
2017-Oct-19 21:30N 52°24' E 004°53'0 0.0
2017-Oct-19 21:00N 52°24' E 004°53'0 0.0
2017-Oct-19 20:29N 52°24' E 004°53'0 0.0
2017-Oct-19 19:59N 52°24' E 004°53'0 0.0
2017-Oct-19 19:29N 52°24' E 004°53'0 0.0
2017-Oct-19 18:59N 52°24' E 004°53'0 0.0
2017-Oct-19 18:29N 52°24' E 004°53'0 0.0
2017-Oct-19 17:59N 52°24' E 004°53'0 0.0
2017-Oct-19 17:29N 52°24' E 004°53'0 0.0
2017-Oct-19 16:59N 52°24' E 004°53'0 0.0
2017-Oct-19 16:30N 52°24' E 004°53'0 0.0
2017-Oct-19 16:00N 52°24' E 004°53'0 0.0
2017-Oct-19 15:30N 52°24' E 004°53'0 0.0
2017-Oct-19 14:59N 52°24' E 004°53'0 0.0
2017-Oct-19 14:30N 52°24' E 004°53'0 0.0
2017-Oct-19 13:59N 52°24' E 004°53'0 0.0
2017-Oct-19 13:29N 52°24' E 004°53'0 0.0
2017-Oct-19 12:59N 52°24' E 004°53'0 0.0
2017-Oct-19 12:29N 52°24' E 004°53'0 0.0
2017-Oct-19 11:59N 52°24' E 004°53'0 0.0
2017-Oct-19 11:30N 52°24' E 004°53'0 0.0
2017-Oct-19 11:00N 52°24' E 004°53'0 0.0
2017-Oct-19 10:29N 52°24' E 004°53'0 0.0
2017-Oct-19 10:00N 52°24' E 004°53'0 0.0
2017-Oct-19 09:29N 52°24' E 004°53'0 0.0
2017-Oct-19 08:59N 52°24' E 004°53'0 0.0
2017-Oct-19 08:29N 52°24' E 004°53'0 0.0
2017-Oct-19 07:59N 52°24' E 004°53'0 0.0
2017-Oct-19 07:29N 52°24' E 004°53'0 0.0
2017-Oct-19 06:59N 52°24' E 004°53'0 0.0
2017-Oct-19 06:29N 52°24' E 004°53'0 0.0
2017-Oct-19 06:00N 52°24' E 004°53'0 0.0
2017-Oct-19 05:29N 52°24' E 004°53'0 0.0
2017-Oct-19 04:59N 52°24' E 004°53'0 0.0
2017-Oct-19 04:29N 52°24' E 004°53'0 0.0
2017-Oct-19 03:59N 52°24' E 004°53'0 0.0
2017-Oct-19 03:29N 52°24' E 004°53'0 0.0
2017-Oct-19 02:59N 52°24' E 004°53'0 0.0
2017-Oct-19 02:29N 52°24' E 004°53'0 0.0
2017-Oct-19 01:59N 52°24' E 004°53'0 0.0
2017-Oct-19 01:29N 52°24' E 004°53'0 0.0
2017-Oct-19 01:00N 52°24' E 004°53'0 0.0
2017-Oct-19 00:29N 52°24' E 004°53'0 0.0
2017-Oct-19 00:00N 52°24' E 004°53'0 0.0
2017-Oct-18 23:30N 52°24' E 004°53'0 0.0
2017-Oct-18 22:59N 52°24' E 004°53'0 0.0
2017-Oct-18 22:29N 52°24' E 004°53'0 0.0
2017-Oct-18 21:59N 52°24' E 004°53'0 0.0
2017-Oct-18 21:29N 52°24' E 004°53'0 0.0
2017-Oct-18 20:59N 52°24' E 004°53'0 0.0
2017-Oct-18 20:30N 52°24' E 004°53'0 0.0
2017-Oct-18 19:59N 52°24' E 004°53'0 0.0
2017-Oct-18 19:29N 52°24' E 004°53'0 0.0
2017-Oct-18 19:00N 52°24' E 004°53'0 0.0
2017-Oct-18 18:29N 52°24' E 004°53'0 0.0
2017-Oct-18 17:59N 52°24' E 004°53'0 0.0
2017-Oct-18 17:30N 52°24' E 004°53'0 0.0
2017-Oct-18 16:59N 52°24' E 004°53'0 0.0
2017-Oct-18 16:30N 52°24' E 004°53'0 0.0
2017-Oct-18 15:59N 52°24' E 004°53'0 0.0
2017-Oct-18 15:29N 52°24' E 004°53'0 0.0
2017-Oct-18 14:59N 52°24' E 004°53'0 0.0
2017-Oct-18 13:59N 52°24' E 004°53'0 0.0
2017-Oct-18 13:29N 52°24' E 004°53'0 0.0
2017-Oct-18 12:59N 52°24' E 004°53'0 0.0
2017-Oct-18 12:29N 52°24' E 004°53'0 0.0
2017-Oct-18 11:59N 52°24' E 004°53'0 0.0
2017-Oct-18 11:29N 52°24' E 004°53'0 0.0
2017-Oct-18 10:59N 52°24' E 004°53'0 0.0
2017-Oct-18 10:30N 52°24' E 004°53'0 0.0
2017-Oct-18 09:59N 52°24' E 004°53'0 0.0
2017-Oct-18 09:29N 52°24' E 004°53'0 0.0
2017-Oct-18 08:59N 52°24' E 004°53'0 0.0
2017-Oct-18 08:30N 52°24' E 004°53'0 0.0
2017-Oct-18 08:00N 52°24' E 004°53'0 0.0
2017-Oct-18 07:29N 52°24' E 004°53'0 0.0
2017-Oct-18 07:00N 52°24' E 004°53'0 0.0
2017-Oct-18 06:29N 52°24' E 004°53'0 0.0
2017-Oct-18 05:59N 52°24' E 004°53'0 0.0
2017-Oct-18 05:29N 52°24' E 004°53'0 0.0
2017-Oct-18 04:59N 52°24' E 004°53'0 0.0
2017-Oct-18 04:29N 52°24' E 004°53'0 0.0
2017-Oct-18 03:59N 52°24' E 004°53'0 0.0
2017-Oct-18 03:29N 52°24' E 004°53'0 0.0
2017-Oct-18 02:59N 52°24' E 004°53'0 0.0
2017-Oct-18 02:29N 52°24' E 004°53'0 0.0
2017-Oct-18 01:59N 52°24' E 004°53'0 0.0
2017-Oct-18 01:29N 52°24' E 004°53'0 0.0
2017-Oct-18 01:00N 52°24' E 004°53'0 0.0
2017-Oct-18 00:29N 52°24' E 004°53'0 0.0
2017-Oct-17 23:59N 52°24' E 004°53'0 0.0
2017-Oct-17 23:29N 52°24' E 004°53'0 0.0
2017-Oct-17 23:00N 52°24' E 004°53'0 0.0
2017-Oct-17 22:29N 52°24' E 004°53'0 0.0
2017-Oct-17 21:59N 52°24' E 004°53'0 0.0
2017-Oct-17 21:29N 52°24' E 004°53'0 0.0
2017-Oct-17 20:59N 52°24' E 004°53'0 0.0
2017-Oct-17 20:30N 52°24' E 004°53'0 0.0
2017-Oct-17 19:59N 52°24' E 004°53'0 0.0
2017-Oct-17 19:29N 52°24' E 004°53'0 0.0
2017-Oct-17 19:00N 52°24' E 004°53'0 0.0
2017-Oct-17 18:30N 52°24' E 004°53'0 0.0
2017-Oct-17 17:59N 52°24' E 004°53'0 0.0
2017-Oct-17 17:29N 52°24' E 004°53'0 0.0
2017-Oct-17 16:59N 52°24' E 004°53'0 0.0
2017-Oct-17 16:29N 52°24' E 004°53'0 0.0
2017-Oct-17 16:00N 52°24' E 004°53'0 0.0
2017-Oct-17 15:29N 52°24' E 004°53'0 0.0
2017-Oct-17 15:00N 52°24' E 004°53'0 0.0
2017-Oct-17 14:29N 52°24' E 004°53'0 0.0
2017-Oct-17 13:59N 52°24' E 004°53'0 0.0
2017-Oct-17 13:30N 52°24' E 004°53'0 0.0
2017-Oct-17 13:00N 52°24' E 004°53'0 0.0
2017-Oct-17 12:30N 52°24' E 004°53'0 0.0
2017-Oct-17 12:00N 52°24' E 004°53'0 0.0
2017-Oct-17 11:30N 52°24' E 004°53'0 0.0
2017-Oct-17 10:59N 52°24' E 004°53'0 0.0
2017-Oct-17 10:29N 52°24' E 004°53'0 0.0
2017-Oct-17 09:59N 52°24' E 004°53'0 0.0
2017-Oct-17 09:29N 52°24' E 004°53'0 0.0
2017-Oct-17 09:00N 52°24' E 004°53'0 0.0
2017-Oct-17 08:30N 52°24' E 004°53'0 0.0
2017-Oct-17 08:00N 52°24' E 004°53'0 0.0
2017-Oct-17 07:29N 52°24' E 004°53'0 0.0
2017-Oct-17 07:00N 52°24' E 004°53'0 0.0
2017-Oct-17 06:29N 52°24' E 004°53'0 0.0
2017-Oct-17 06:00N 52°24' E 004°53'0 0.0
2017-Oct-17 05:29N 52°24' E 004°53'0 0.0
2017-Oct-17 04:59N 52°24' E 004°53'0 0.0
2017-Oct-17 04:29N 52°24' E 004°53'0 0.0
2017-Oct-17 04:00N 52°24' E 004°53'0 0.0
2017-Oct-17 03:29N 52°24' E 004°53'0 0.0
2017-Oct-17 02:59N 52°24' E 004°53'0 0.0
2017-Oct-17 02:29N 52°24' E 004°53'0 0.0
2017-Oct-17 01:59N 52°24' E 004°53'0 0.0
2017-Oct-17 01:30N 52°24' E 004°53'0 0.0
2017-Oct-17 01:00N 52°24' E 004°53'0 0.0
2017-Oct-17 00:30N 52°24' E 004°53'0 0.0
2017-Oct-17 00:00N 52°24' E 004°53'0 0.0
2017-Oct-16 23:29N 52°24' E 004°53'0 0.0
2017-Oct-16 23:00N 52°24' E 004°53'0 0.0
2017-Oct-16 22:29N 52°24' E 004°53'0 0.0
2017-Oct-16 21:59N 52°24' E 004°53'0 0.0
2017-Oct-16 21:29N 52°24' E 004°53'0 0.0
2017-Oct-16 20:59N 52°24' E 004°53'0 0.0
2017-Oct-16 20:29N 52°24' E 004°53'0 0.0
2017-Oct-16 20:00N 52°24' E 004°53'0 0.0
2017-Oct-16 19:30N 52°24' E 004°53'0 0.0
2017-Oct-16 19:00N 52°24' E 004°53'0 0.0
2017-Oct-16 18:30N 52°24' E 004°53'0 0.0
2017-Oct-16 17:59N 52°24' E 004°53'0 0.0
2017-Oct-16 17:30N 52°24' E 004°53'0 0.0
2017-Oct-16 16:59N 52°24' E 004°53'0 0.0
2017-Oct-16 16:29N 52°24' E 004°53'0 0.0
2017-Oct-16 15:59N 52°24' E 004°53'0 0.0
2017-Oct-16 15:29N 52°24' E 004°53'0 0.0
2017-Oct-16 15:00N 52°24' E 004°53'0 0.0
2017-Oct-16 14:29N 52°24' E 004°53'  
Track history (hours):
 
Tides and Currents Weather Stations Pressure Air Temp Water Temp Dewpoint Dewpoint Depression Visibility Wind Speed Wind Dir Waves Ship Positions

Artemis (Netherlands)

Ship's website: http://www.tallship-company.com/artemis/gb_artemis.htm

Last reported at 2017-Oct-26 14:13 UTC. Time now 2017-Nov-20 19:01 UTC.
Position N 53°10' E 005°25'.
Warning: this ship's position is 25 days out of date.

Length 59 m; draft 3.4 m.

Type: Sailing vessel. MMSI: 244875000.

Date/timePositionNaut miles runAvg speedWind from/ knotsBaromVisibWave heightAir tempDewpointWater temp
2017-Oct-26 14:13N 53°10' E 005°25'0 0.0
2017-Oct-26 13:58N 53°10' E 005°25'0 0.0
2017-Oct-26 13:28N 53°10' E 005°25'0 0.0
2017-Oct-26 12:58N 53°10' E 005°25'0 0.0
2017-Oct-26 12:28N 53°10' E 005°25'0 0.0
2017-Oct-26 11:58N 53°10' E 005°25'0 0.0
2017-Oct-26 11:28N 53°10' E 005°25'0 0.0
2017-Oct-26 10:58N 53°10' E 005°25'0 0.0
2017-Oct-26 10:28N 53°10' E 005°25'0 0.0
2017-Oct-26 09:58N 53°10' E 005°25'0 0.0
2017-Oct-26 09:28N 53°10' E 005°25'0 0.0
2017-Oct-26 08:58N 53°10' E 005°25'0 0.0
2017-Oct-26 08:28N 53°10' E 005°25'0 0.0
2017-Oct-26 07:58N 53°10' E 005°25'0 0.0
2017-Oct-26 07:28N 53°10' E 005°25'0 0.0
2017-Oct-26 06:58N 53°10' E 005°25'0 0.0
2017-Oct-26 06:28N 53°10' E 005°25'0 0.0
2017-Oct-26 05:58N 53°10' E 005°25'0 0.0
2017-Oct-26 05:28N 53°10' E 005°25'0 0.0
2017-Oct-26 04:58N 53°10' E 005°25'0 0.0
2017-Oct-26 04:28N 53°10' E 005°25'0 0.0
2017-Oct-26 03:58N 53°10' E 005°25'0 0.0
2017-Oct-26 03:28N 53°10' E 005°25'0 0.0
2017-Oct-26 02:58N 53°10' E 005°25'0 0.0
2017-Oct-26 02:28N 53°10' E 005°25'0 0.0
2017-Oct-26 01:58N 53°10' E 005°25'0 0.0
2017-Oct-26 01:28N 53°10' E 005°25'0 0.0
2017-Oct-26 00:58N 53°10' E 005°25'0 0.0
2017-Oct-26 00:28N 53°10' E 005°25'0 0.0
2017-Oct-25 23:58N 53°10' E 005°25'0 0.0
2017-Oct-25 23:28N 53°10' E 005°25'0 0.0
2017-Oct-25 22:58N 53°10' E 005°25'0 0.0
2017-Oct-25 22:28N 53°10' E 005°25'0 0.0
2017-Oct-25 21:58N 53°10' E 005°25'0 0.0
2017-Oct-25 21:28N 53°10' E 005°25'0 0.0
2017-Oct-25 20:58N 53°10' E 005°25'0 0.0
2017-Oct-25 20:28N 53°10' E 005°25'0 0.0
2017-Oct-25 19:58N 53°10' E 005°25'0 0.0
2017-Oct-25 19:28N 53°10' E 005°25'0 0.0
2017-Oct-25 18:58N 53°10' E 005°25'0 0.0
2017-Oct-25 18:28N 53°10' E 005°25'0 0.0
2017-Oct-25 17:58N 53°10' E 005°25'0 0.0
2017-Oct-25 17:28N 53°10' E 005°25'0 0.0
2017-Oct-25 16:58N 53°10' E 005°25'0 0.0
2017-Oct-25 16:28N 53°10' E 005°25'0 0.0
2017-Oct-25 15:58N 53°10' E 005°25'0 0.0
2017-Oct-25 15:28N 53°10' E 005°25'0 0.0
2017-Oct-25 14:58N 53°10' E 005°25'0 0.0
2017-Oct-25 14:28N 53°10' E 005°25'0 0.0
2017-Oct-25 13:58N 53°10' E 005°25'0 0.0
2017-Oct-25 13:28N 53°10' E 005°25'0 0.0
2017-Oct-25 12:58N 53°10' E 005°25'0 0.0
2017-Oct-25 12:28N 53°10' E 005°25'0 0.0
2017-Oct-25 11:58N 53°10' E 005°25'0 0.0
2017-Oct-25 11:30N 53°10' E 005°25'1 2.2
2017-Oct-25 11:00N 53°10' E 005°23'3 6.1
2017-Oct-25 10:30N 53°07' E 005°22'3 6.4
2017-Oct-25 10:00N 53°05' E 005°18'4 7.8
2017-Oct-25 09:30N 53°03' E 005°12'4 7.7
2017-Oct-25 09:00N 53°02' E 005°06'3 6.7
2017-Oct-25 08:30N 53°04' E 005°01'4 7.7
2017-Oct-25 08:00N 53°03' E 004°54'2 4.3
2017-Oct-25 07:30N 53°02' E 004°51'0 0.0
2017-Oct-25 06:56N 53°02' E 004°51'0 0.0
2017-Oct-25 06:29N 53°02' E 004°51'0 0.0
2017-Oct-25 05:59N 53°02' E 004°51'0 0.0
2017-Oct-25 05:29N 53°02' E 004°51'0 0.0
2017-Oct-25 04:59N 53°02' E 004°51'0 0.0
2017-Oct-25 04:29N 53°02' E 004°51'0 0.0
2017-Oct-25 03:56N 53°02' E 004°51'0 0.0
2017-Oct-25 03:29N 53°02' E 004°51'0 0.0
2017-Oct-25 02:59N 53°02' E 004°51'0 0.0
2017-Oct-25 02:29N 53°02' E 004°51'0 0.0
2017-Oct-25 01:56N 53°02' E 004°51'0 0.0
2017-Oct-25 01:29N 53°02' E 004°51'0 0.0
2017-Oct-25 00:59N 53°02' E 004°51'0 0.0
2017-Oct-25 00:29N 53°02' E 004°51'0 0.0
2017-Oct-24 23:59N 53°02' E 004°51'0 0.0
2017-Oct-24 23:29N 53°02' E 004°51'0 0.0
2017-Oct-24 22:59N 53°02' E 004°51'0 0.0
2017-Oct-24 22:26N 53°02' E 004°51'0 0.0
2017-Oct-24 21:59N 53°02' E 004°51'0 0.0
2017-Oct-24 21:29N 53°02' E 004°51'0 0.0
2017-Oct-24 20:59N 53°02' E 004°51'0 0.0
2017-Oct-24 20:29N 53°02' E 004°51'0 0.0
2017-Oct-24 19:59N 53°02' E 004°51'0 0.0
2017-Oct-24 19:29N 53°02' E 004°51'0 0.0
2017-Oct-24 18:59N 53°02' E 004°51'0 0.0
2017-Oct-24 18:29N 53°02' E 004°51'0 0.0
2017-Oct-24 17:59N 53°02' E 004°51'0 0.0
2017-Oct-24 17:29N 53°02' E 004°51'0 0.0
2017-Oct-24 16:59N 53°02' E 004°51'0 0.0
2017-Oct-24 16:29N 53°02' E 004°51'0 0.0
2017-Oct-24 15:59N 53°02' E 004°51'0 0.0
2017-Oct-24 15:29N 53°02' E 004°51'0 0.0
2017-Oct-24 14:59N 53°02' E 004°51'0 0.0
2017-Oct-24 14:29N 53°02' E 004°51'0 0.0
2017-Oct-24 14:00N 53°02' E 004°51'1 2.9
2017-Oct-24 13:30N 53°01' E 004°50'3 5.3
2017-Oct-24 13:00N 52°59' E 004°47'3 5.1
2017-Oct-24 12:30N 52°58' E 004°44'3 5.8
2017-Oct-24 12:00N 52°56' E 004°40'3 6.6
2017-Oct-24 11:30N 52°53' E 004°38'4 7.2
2017-Oct-24 11:00N 52°49' E 004°37'3 6.8
2017-Oct-24 10:30N 52°46' E 004°36'3 7.0
2017-Oct-24 10:00N 52°43' E 004°35'4 7.3
2017-Oct-24 09:30N 52°39' E 004°34'3 7.0
2017-Oct-24 09:00N 52°35' E 004°33'4 7.3
2017-Oct-24 08:30N 52°32' E 004°32'4 7.3
2017-Oct-24 08:01N 52°28' E 004°32'2 4.4
2017-Oct-24 07:30N 52°28' E 004°36'1 2.9
2017-Oct-24 07:00N 52°28' E 004°38'3 6.6
2017-Oct-24 06:31N 52°26' E 004°43'3 6.8
2017-Oct-24 06:01N 52°25' E 004°48'3 6.6
2017-Oct-24 05:30N 52°24' E 004°53'0 0.6
2017-Oct-24 05:00N 52°24' E 004°53'0 0.0
2017-Oct-24 04:30N 52°24' E 004°53'0 0.0
2017-Oct-24 04:00N 52°24' E 004°53'0 0.0
2017-Oct-24 03:30N 52°24' E 004°53'0 0.0
2017-Oct-24 03:00N 52°24' E 004°53'0 0.0
2017-Oct-24 02:29N 52°24' E 004°53'0 0.0
2017-Oct-24 02:00N 52°24' E 004°53'0 0.0
2017-Oct-24 01:29N 52°24' E 004°53'0 0.0
2017-Oct-24 01:00N 52°24' E 004°53'0 0.0
2017-Oct-24 00:29N 52°24' E 004°53'0 0.0
2017-Oct-24 00:00N 52°24' E 004°53'0 0.0
2017-Oct-23 23:30N 52°24' E 004°53'0 0.0
2017-Oct-23 23:00N 52°24' E 004°53'0 0.0
2017-Oct-23 22:30N 52°24' E 004°53'0 0.0
2017-Oct-23 22:00N 52°24' E 004°53'0 0.0
2017-Oct-23 21:30N 52°24' E 004°53'0 0.0
2017-Oct-23 21:00N 52°24' E 004°53'0 0.0
2017-Oct-23 20:30N 52°24' E 004°53'0 0.0
2017-Oct-23 19:59N 52°24' E 004°53'0 0.0
2017-Oct-23 19:30N 52°24' E 004°53'0 0.0
2017-Oct-23 19:00N 52°24' E 004°53'0 0.0
2017-Oct-23 18:29N 52°24' E 004°53'0 0.0
2017-Oct-23 17:59N 52°24' E 004°53'0 0.0
2017-Oct-23 17:30N 52°24' E 004°53'0 0.0
2017-Oct-23 17:00N 52°24' E 004°53'0 0.0
2017-Oct-23 16:30N 52°24' E 004°53'0 0.0
2017-Oct-23 16:00N 52°24' E 004°53'0 0.0
2017-Oct-23 15:30N 52°24' E 004°53'0 0.0
2017-Oct-23 15:00N 52°24' E 004°53'0 0.0
2017-Oct-23 14:30N 52°24' E 004°53'0 0.0
2017-Oct-23 13:59N 52°24' E 004°53'0 0.0
2017-Oct-23 13:30N 52°24' E 004°53'0 0.0
2017-Oct-23 13:00N 52°24' E 004°53'0 0.0
2017-Oct-23 12:29N 52°24' E 004°53'0 0.0
2017-Oct-23 12:00N 52°24' E 004°53'0 0.0
2017-Oct-23 11:29N 52°24' E 004°53'0 0.0
2017-Oct-23 11:00N 52°24' E 004°53'0 0.0
2017-Oct-23 10:29N 52°24' E 004°53'0 0.0
2017-Oct-23 09:59N 52°24' E 004°53'0 0.0
2017-Oct-23 09:30N 52°24' E 004°53'0 0.0
2017-Oct-23 08:59N 52°24' E 004°53'0 0.0
2017-Oct-23 08:29N 52°24' E 004°53'0 0.0
2017-Oct-23 07:59N 52°24' E 004°53'0 0.0
2017-Oct-23 07:30N 52°24' E 004°53'0 0.0
2017-Oct-23 06:59N 52°24' E 004°53'0 0.0
2017-Oct-23 06:30N 52°24' E 004°53'0 0.0
2017-Oct-23 05:59N 52°24' E 004°53'0 0.0
2017-Oct-23 05:30N 52°24' E 004°53'0 0.0
2017-Oct-23 04:59N 52°24' E 004°53'0 0.0
2017-Oct-23 04:29N 52°24' E 004°53'0 0.0
2017-Oct-23 04:00N 52°24' E 004°53'0 0.0
2017-Oct-23 03:30N 52°24' E 004°53'0 0.0
2017-Oct-23 02:30N 52°24' E 004°53'0 0.0
2017-Oct-23 01:59N 52°24' E 004°53'0 0.0
2017-Oct-23 01:29N 52°24' E 004°53'0 0.0
2017-Oct-23 00:59N 52°24' E 004°53'0 0.0
2017-Oct-23 00:29N 52°24' E 004°53'0 0.0
2017-Oct-23 00:00N 52°24' E 004°53'0 0.0
2017-Oct-22 23:30N 52°24' E 004°53'0 0.0
2017-Oct-22 23:00N 52°24' E 004°53'0 0.0
2017-Oct-22 22:30N 52°24' E 004°53'0 0.0
2017-Oct-22 21:59N 52°24' E 004°53'0 0.0
2017-Oct-22 21:30N 52°24' E 004°53'0 0.0
2017-Oct-22 21:00N 52°24' E 004°53'0 0.0
2017-Oct-22 20:30N 52°24' E 004°53'0 0.0
2017-Oct-22 20:00N 52°24' E 004°53'0 0.0
2017-Oct-22 19:30N 52°24' E 004°53'0 0.0
2017-Oct-22 19:00N 52°24' E 004°53'0 0.0
2017-Oct-22 18:30N 52°24' E 004°53'0 0.0
2017-Oct-22 18:00N 52°24' E 004°53'0 0.0
2017-Oct-22 17:29N 52°24' E 004°53'0 0.0
2017-Oct-22 17:00N 52°24' E 004°53'0 0.0
2017-Oct-22 16:30N 52°24' E 004°53'0 0.0
2017-Oct-22 15:59N 52°24' E 004°53'0 0.0
2017-Oct-22 15:30N 52°24' E 004°53'0 0.0
2017-Oct-22 14:59N 52°24' E 004°53'0 0.0
2017-Oct-22 14:30N 52°24' E 004°53'0 0.0
2017-Oct-22 13:59N 52°24' E 004°53'0 0.0
2017-Oct-22 13:30N 52°24' E 004°53'0 0.0
2017-Oct-22 12:59N 52°24' E 004°53'0 0.0
2017-Oct-22 12:29N 52°24' E 004°53'0 0.0
2017-Oct-22 11:59N 52°24' E 004°53'0 0.0
2017-Oct-22 11:30N 52°24' E 004°53'0 0.0
2017-Oct-22 10:59N 52°24' E 004°53'0 0.0
2017-Oct-22 10:30N 52°24' E 004°53'0 0.0
2017-Oct-22 10:00N 52°24' E 004°53'0 0.0
2017-Oct-22 09:30N 52°24' E 004°53'0 0.0
2017-Oct-22 09:00N 52°24' E 004°53'0 0.0
2017-Oct-22 08:29N 52°24' E 004°53'0 0.0
2017-Oct-22 07:59N 52°24' E 004°53'0 0.0
2017-Oct-22 07:29N 52°24' E 004°53'0 0.0
2017-Oct-22 06:59N 52°24' E 004°53'0 0.0
2017-Oct-22 06:30N 52°24' E 004°53'0 0.0
2017-Oct-22 06:00N 52°24' E 004°53'0 0.0
2017-Oct-22 05:30N 52°24' E 004°53'0 0.0
2017-Oct-22 05:00N 52°24' E 004°53'0 0.0
2017-Oct-22 04:29N 52°24' E 004°53'0 0.0
2017-Oct-22 03:59N 52°24' E 004°53'0 0.0
2017-Oct-22 03:29N 52°24' E 004°53'0 0.0
2017-Oct-22 02:59N 52°24' E 004°53'0 0.0
2017-Oct-22 02:30N 52°24' E 004°53'0 0.0
2017-Oct-22 01:59N 52°24' E 004°53'0 0.0
2017-Oct-22 01:29N 52°24' E 004°53'0 0.0
2017-Oct-22 01:00N 52°24' E 004°53'0 0.0
2017-Oct-22 00:29N 52°24' E 004°53'0 0.0
2017-Oct-22 00:00N 52°24' E 004°53'0 0.0
2017-Oct-21 23:30N 52°24' E 004°53'0 0.0
2017-Oct-21 22:59N 52°24' E 004°53'0 0.0
2017-Oct-21 22:30N 52°24' E 004°53'0 0.0
2017-Oct-21 22:00N 52°24' E 004°53'0 0.0
2017-Oct-21 21:29N 52°24' E 004°53'0 0.0
2017-Oct-21 21:00N 52°24' E 004°53'0 0.0
2017-Oct-21 20:29N 52°24' E 004°53'0 0.0
2017-Oct-21 19:59N 52°24' E 004°53'0 0.0
2017-Oct-21 19:29N 52°24' E 004°53'0 0.0
2017-Oct-21 18:59N 52°24' E 004°53'0 0.0
2017-Oct-21 18:29N 52°24' E 004°53'0 0.0
2017-Oct-21 17:59N 52°24' E 004°53'0 0.0
2017-Oct-21 17:30N 52°24' E 004°53'0 0.0
2017-Oct-21 17:00N 52°24' E 004°53'0 0.0
2017-Oct-21 16:29N 52°24' E 004°53'0 0.0
2017-Oct-21 16:00N 52°24' E 004°53'0 0.0
2017-Oct-21 15:30N 52°24' E 004°53'0 0.0
2017-Oct-21 15:00N 52°24' E 004°53'0 0.0
2017-Oct-21 14:00N 52°24' E 004°53'0 0.0
2017-Oct-21 13:29N 52°24' E 004°53'0 0.0
2017-Oct-21 12:59N 52°24' E 004°53'0 0.0
2017-Oct-21 12:29N 52°24' E 004°53'0 0.0
2017-Oct-21 11:59N 52°24' E 004°53'0 0.0
2017-Oct-21 11:30N 52°24' E 004°53'0 0.0
2017-Oct-21 10:59N 52°24' E 004°53'0 0.0
2017-Oct-21 10:29N 52°24' E 004°53'0 0.0
2017-Oct-21 10:00N 52°24' E 004°53'0 0.0
2017-Oct-21 09:30N 52°24' E 004°53'0 0.0
2017-Oct-21 09:00N 52°24' E 004°53'0 0.0
2017-Oct-21 08:29N 52°24' E 004°53'0 0.0
2017-Oct-21 07:59N 52°24' E 004°53'0 0.0
2017-Oct-21 07:30N 52°24' E 004°53'0 0.0
2017-Oct-21 06:59N 52°24' E 004°53'0 0.0
2017-Oct-21 06:30N 52°24' E 004°53'0 0.0
2017-Oct-21 05:59N 52°24' E 004°53'0 0.0
2017-Oct-21 05:29N 52°24' E 004°53'0 0.0
2017-Oct-21 05:00N 52°24' E 004°53'0 0.0
2017-Oct-21 04:29N 52°24' E 004°53'0 0.0
2017-Oct-21 03:59N 52°24' E 004°53'0 0.0
2017-Oct-21 03:30N 52°24' E 004°53'0 0.0
2017-Oct-21 03:00N 52°24' E 004°53'0 0.0
2017-Oct-21 02:29N 52°24' E 004°53'0 0.0
2017-Oct-21 01:59N 52°24' E 004°53'0 0.0
2017-Oct-21 01:30N 52°24' E 004°53'0 0.0
2017-Oct-21 01:00N 52°24' E 004°53'0 0.0
2017-Oct-21 00:30N 52°24' E 004°53'0 0.0
2017-Oct-20 23:59N 52°24' E 004°53'0 0.0
2017-Oct-20 23:29N 52°24' E 004°53'0 0.0
2017-Oct-20 23:00N 52°24' E 004°53'0 0.0
2017-Oct-20 22:30N 52°24' E 004°53'0 0.0
2017-Oct-20 22:00N 52°24' E 004°53'0 0.0
2017-Oct-20 21:30N 52°24' E 004°53'0 0.0
2017-Oct-20 20:59N 52°24' E 004°53'0 0.0
2017-Oct-20 20:29N 52°24' E 004°53'0 0.0
2017-Oct-20 20:00N 52°24' E 004°53'0 0.0
2017-Oct-20 19:30N 52°24' E 004°53'0 0.0
2017-Oct-20 18:59N 52°24' E 004°53'0 0.0
2017-Oct-20 18:29N 52°24' E 004°53'0 0.0
2017-Oct-20 17:59N 52°24' E 004°53'0 0.0
2017-Oct-20 17:29N 52°24' E 004°53'0 0.0
2017-Oct-20 16:59N 52°24' E 004°53'0 0.0
2017-Oct-20 16:29N 52°24' E 004°53'0 0.0
2017-Oct-20 16:00N 52°24' E 004°53'0 0.0
2017-Oct-20 15:29N 52°24' E 004°53'0 0.0
2017-Oct-20 14:59N 52°24' E 004°53'0 0.0
2017-Oct-20 14:30N 52°24' E 004°53'0 0.0
2017-Oct-20 13:30N 52°24' E 004°53'0 0.0
2017-Oct-20 12:59N 52°24' E 004°53'0 0.0
2017-Oct-20 12:29N 52°24' E 004°53'0 0.0
2017-Oct-20 11:59N 52°24' E 004°53'0 0.0
2017-Oct-20 11:30N 52°24' E 004°53'0 0.0
2017-Oct-20 10:59N 52°24' E 004°53'0 0.0
2017-Oct-20 10:29N 52°24' E 004°53'0 0.0
2017-Oct-20 09:59N 52°24' E 004°53'0 0.0
2017-Oct-20 09:29N 52°24' E 004°53'0 0.0
2017-Oct-20 09:00N 52°24' E 004°53'0 0.0
2017-Oct-20 08:29N 52°24' E 004°53'0 0.0
2017-Oct-20 08:00N 52°24' E 004°53'0 0.0
2017-Oct-20 07:29N 52°24' E 004°53'0 0.0
2017-Oct-20 07:00N 52°24' E 004°53'0 0.0
2017-Oct-20 06:30N 52°24' E 004°53'0 0.0
2017-Oct-20 05:59N 52°24' E 004°53'0 0.0
2017-Oct-20 05:29N 52°24' E 004°53'0 0.0
2017-Oct-20 04:59N 52°24' E 004°53'0 0.0
2017-Oct-20 04:30N 52°24' E 004°53'0 0.0
2017-Oct-20 04:00N 52°24' E 004°53'0 0.0
2017-Oct-20 03:30N 52°24' E 004°53'0 0.0
2017-Oct-20 02:59N 52°24' E 004°53'0 0.0
2017-Oct-20 02:29N 52°24' E 004°53'0 0.0
2017-Oct-20 01:59N 52°24' E 004°53'0 0.0
2017-Oct-20 01:30N 52°24' E 004°53'0 0.0
2017-Oct-20 01:00N 52°24' E 004°53'0 0.0
2017-Oct-20 00:30N 52°24' E 004°53'0 0.0
2017-Oct-19 23:59N 52°24' E 004°53'0 0.0
2017-Oct-19 23:29N 52°24' E 004°53'0 0.0
2017-Oct-19 22:59N 52°24' E 004°53'0 0.0
2017-Oct-19 22:29N 52°24' E 004°53'0 0.0
2017-Oct-19 21:59N 52°24' E 004°53'0 0.0
2017-Oct-19 21:30N 52°24' E 004°53'0 0.0
2017-Oct-19 21:00N 52°24' E 004°53'0 0.0
2017-Oct-19 20:29N 52°24' E 004°53'0 0.0
2017-Oct-19 19:59N 52°24' E 004°53'0 0.0
2017-Oct-19 19:29N 52°24' E 004°53'0 0.0
2017-Oct-19 18:59N 52°24' E 004°53'0 0.0
2017-Oct-19 18:29N 52°24' E 004°53'0 0.0
2017-Oct-19 17:59N 52°24' E 004°53'0 0.0
2017-Oct-19 17:29N 52°24' E 004°53'0 0.0
2017-Oct-19 16:59N 52°24' E 004°53'0 0.0
2017-Oct-19 16:30N 52°24' E 004°53'0 0.0
2017-Oct-19 16:00N 52°24' E 004°53'0 0.0
2017-Oct-19 15:30N 52°24' E 004°53'0 0.0
2017-Oct-19 14:59N 52°24' E 004°53'0 0.0
2017-Oct-19 14:30N 52°24' E 004°53'0 0.0
2017-Oct-19 13:59N 52°24' E 004°53'0 0.0
2017-Oct-19 13:29N 52°24' E 004°53'0 0.0
2017-Oct-19 12:59N 52°24' E 004°53'0 0.0
2017-Oct-19 12:29N 52°24' E 004°53'0 0.0
2017-Oct-19 11:59N 52°24' E 004°53'0 0.0
2017-Oct-19 11:30N 52°24' E 004°53'0 0.0
2017-Oct-19 11:00N 52°24' E 004°53'0 0.0
2017-Oct-19 10:29N 52°24' E 004°53'0 0.0
2017-Oct-19 10:00N 52°24' E 004°53'0 0.0
2017-Oct-19 09:29N 52°24' E 004°53'0 0.0
2017-Oct-19 08:59N 52°24' E 004°53'0 0.0
2017-Oct-19 08:29N 52°24' E 004°53'0 0.0
2017-Oct-19 07:59N 52°24' E 004°53'0 0.0
2017-Oct-19 07:29N 52°24' E 004°53'0 0.0
2017-Oct-19 06:59N 52°24' E 004°53'0 0.0
2017-Oct-19 06:29N 52°24' E 004°53'0 0.0
2017-Oct-19 06:00N 52°24' E 004°53'0 0.0
2017-Oct-19 05:29N 52°24' E 004°53'0 0.0
2017-Oct-19 04:59N 52°24' E 004°53'0 0.0
2017-Oct-19 04:29N 52°24' E 004°53'0 0.0
2017-Oct-19 03:59N 52°24' E 004°53'0 0.0
2017-Oct-19 03:29N 52°24' E 004°53'0 0.0
2017-Oct-19 02:59N 52°24' E 004°53'0 0.0
2017-Oct-19 02:29N 52°24' E 004°53'0 0.0
2017-Oct-19 01:59N 52°24' E 004°53'0 0.0
2017-Oct-19 01:29N 52°24' E 004°53'0 0.0
2017-Oct-19 01:00N 52°24' E 004°53'0 0.0
2017-Oct-19 00:29N 52°24' E 004°53'0 0.0
2017-Oct-19 00:00N 52°24' E 004°53'0 0.0
2017-Oct-18 23:30N 52°24' E 004°53'0 0.0
2017-Oct-18 22:59N 52°24' E 004°53'0 0.0
2017-Oct-18 22:29N 52°24' E 004°53'0 0.0
2017-Oct-18 21:59N 52°24' E 004°53'0 0.0
2017-Oct-18 21:29N 52°24' E 004°53'0 0.0
2017-Oct-18 20:59N 52°24' E 004°53'0 0.0
2017-Oct-18 20:30N 52°24' E 004°53'0 0.0
2017-Oct-18 19:59N 52°24' E 004°53'0 0.0
2017-Oct-18 19:29N 52°24' E 004°53'0 0.0
2017-Oct-18 19:00N 52°24' E 004°53'0 0.0
2017-Oct-18 18:29N 52°24' E 004°53'0 0.0
2017-Oct-18 17:59N 52°24' E 004°53'0 0.0
2017-Oct-18 17:30N 52°24' E 004°53'0 0.0
2017-Oct-18 16:59N 52°24' E 004°53'0 0.0
2017-Oct-18 16:30N 52°24' E 004°53'0 0.0
2017-Oct-18 15:59N 52°24' E 004°53'0 0.0
2017-Oct-18 15:29N 52°24' E 004°53'0 0.0
2017-Oct-18 14:59N 52°24' E 004°53'0 0.0
2017-Oct-18 13:59N 52°24' E 004°53'0 0.0
2017-Oct-18 13:29N 52°24' E 004°53'0 0.0
2017-Oct-18 12:59N 52°24' E 004°53'0 0.0
2017-Oct-18 12:29N 52°24' E 004°53'0 0.0
2017-Oct-18 11:59N 52°24' E 004°53'0 0.0
2017-Oct-18 11:29N 52°24' E 004°53'0 0.0
2017-Oct-18 10:59N 52°24' E 004°53'0 0.0
2017-Oct-18 10:30N 52°24' E 004°53'0 0.0
2017-Oct-18 09:59N 52°24' E 004°53'0 0.0
2017-Oct-18 09:29N 52°24' E 004°53'0 0.0
2017-Oct-18 08:59N 52°24' E 004°53'0 0.0
2017-Oct-18 08:30N 52°24' E 004°53'0 0.0
2017-Oct-18 08:00N 52°24' E 004°53'0 0.0
2017-Oct-18 07:29N 52°24' E 004°53'0 0.0
2017-Oct-18 07:00N 52°24' E 004°53'0 0.0
2017-Oct-18 06:29N 52°24' E 004°53'0 0.0
2017-Oct-18 05:59N 52°24' E 004°53'0 0.0
2017-Oct-18 05:29N 52°24' E 004°53'0 0.0
2017-Oct-18 04:59N 52°24' E 004°53'0 0.0
2017-Oct-18 04:29N 52°24' E 004°53'0 0.0
2017-Oct-18 03:59N 52°24' E 004°53'0 0.0
2017-Oct-18 03:29N 52°24' E 004°53'0 0.0
2017-Oct-18 02:59N 52°24' E 004°53'0 0.0
2017-Oct-18 02:29N 52°24' E 004°53'0 0.0
2017-Oct-18 01:59N 52°24' E 004°53'0 0.0
2017-Oct-18 01:29N 52°24' E 004°53'0 0.0
2017-Oct-18 01:00N 52°24' E 004°53'0 0.0
2017-Oct-18 00:29N 52°24' E 004°53'0 0.0
2017-Oct-17 23:59N 52°24' E 004°53'0 0.0
2017-Oct-17 23:29N 52°24' E 004°53'0 0.0
2017-Oct-17 23:00N 52°24' E 004°53'0 0.0
2017-Oct-17 22:29N 52°24' E 004°53'0 0.0
2017-Oct-17 21:59N 52°24' E 004°53'0 0.0
2017-Oct-17 21:29N 52°24' E 004°53'0 0.0
2017-Oct-17 20:59N 52°24' E 004°53'0 0.0
2017-Oct-17 20:30N 52°24' E 004°53'0 0.0
2017-Oct-17 19:59N 52°24' E 004°53'0 0.0
2017-Oct-17 19:29N 52°24' E 004°53'0 0.0
2017-Oct-17 19:00N 52°24' E 004°53'0 0.0
2017-Oct-17 18:30N 52°24' E 004°53'0 0.0
2017-Oct-17 17:59N 52°24' E 004°53'0 0.0
2017-Oct-17 17:29N 52°24' E 004°53'0 0.0
2017-Oct-17 16:59N 52°24' E 004°53'0 0.0
2017-Oct-17 16:29N 52°24' E 004°53'0 0.0
2017-Oct-17 16:00N 52°24' E 004°53'0 0.0
2017-Oct-17 15:29N 52°24' E 004°53'0 0.0
2017-Oct-17 15:00N 52°24' E 004°53'0 0.0
2017-Oct-17 14:29N 52°24' E 004°53'0 0.0
2017-Oct-17 13:59N 52°24' E 004°53'0 0.0
2017-Oct-17 13:30N 52°24' E 004°53'0 0.0
2017-Oct-17 13:00N 52°24' E 004°53'0 0.0
2017-Oct-17 12:30N 52°24' E 004°53'0 0.0
2017-Oct-17 12:00N 52°24' E 004°53'0 0.0
2017-Oct-17 11:30N 52°24' E 004°53'0 0.0
2017-Oct-17 10:59N 52°24' E 004°53'0 0.0
2017-Oct-17 10:29N 52°24' E 004°53'0 0.0
2017-Oct-17 09:59N 52°24' E 004°53'0 0.0
2017-Oct-17 09:29N 52°24' E 004°53'0 0.0
2017-Oct-17 09:00N 52°24' E 004°53'0 0.0
2017-Oct-17 08:30N 52°24' E 004°53'0 0.0
2017-Oct-17 08:00N 52°24' E 004°53'0 0.0
2017-Oct-17 07:29N 52°24' E 004°53'0 0.0
2017-Oct-17 07:00N 52°24' E 004°53'0 0.0
2017-Oct-17 06:29N 52°24' E 004°53'0 0.0
2017-Oct-17 06:00N 52°24' E 004°53'0 0.0
2017-Oct-17 05:29N 52°24' E 004°53'0 0.0
2017-Oct-17 04:59N 52°24' E 004°53'0 0.0
2017-Oct-17 04:29N 52°24' E 004°53'0 0.0
2017-Oct-17 04:00N 52°24' E 004°53'0 0.0
2017-Oct-17 03:29N 52°24' E 004°53'0 0.0
2017-Oct-17 02:59N 52°24' E 004°53'0 0.0
2017-Oct-17 02:29N 52°24' E 004°53'0 0.0
2017-Oct-17 01:59N 52°24' E 004°53'0 0.0
2017-Oct-17 01:30N 52°24' E 004°53'0 0.0
2017-Oct-17 01:00N 52°24' E 004°53'0 0.0
2017-Oct-17 00:30N 52°24' E 004°53'0 0.0
2017-Oct-17 00:00N 52°24' E 004°53'0 0.0
2017-Oct-16 23:29N 52°24' E 004°53'0 0.0
2017-Oct-16 23:00N 52°24' E 004°53'0 0.0
2017-Oct-16 22:29N 52°24' E 004°53'0 0.0
2017-Oct-16 21:59N 52°24' E 004°53'0 0.0
2017-Oct-16 21:29N 52°24' E 004°53'0 0.0
2017-Oct-16 20:59N 52°24' E 004°53'0 0.0
2017-Oct-16 20:29N 52°24' E 004°53'0 0.0
2017-Oct-16 20:00N 52°24' E 004°53'0 0.0
2017-Oct-16 19:30N 52°24' E 004°53'0 0.0
2017-Oct-16 19:00N 52°24' E 004°53'0 0.0
2017-Oct-16 18:30N 52°24' E 004°53'0 0.0
2017-Oct-16 17:59N 52°24' E 004°53'0 0.0
2017-Oct-16 17:30N 52°24' E 004°53'0 0.0
2017-Oct-16 16:59N 52°24' E 004°53'0 0.0
2017-Oct-16 16:29N 52°24' E 004°53'0 0.0
2017-Oct-16 15:59N 52°24' E 004°53'0 0.0
2017-Oct-16 15:29N 52°24' E 004°53'0 0.0
2017-Oct-16 15:00N 52°24' E 004°53'0 0.0
2017-Oct-16 14:29N 52°24' E 004°53'  

Dump ship's entire track history